Time;durP1;ratioP1;P1;durP2;ratioP2;P2;SDS_P1;SDS_P2;PMS_P1;PMS_P2;Temp;Humidity;BMP_temperature;BMP_pressure;BME280_temperature;BME280_humidity;BME280_pressure;Samples;Min_cycle;Max_cycle;Signal;HPM_P1;HPM_P2
2021/06/03 00:00:12;;;;;;;4.90;1.93;;;18.20;99.90;;;;;;4955225;28;20278;-72
2021/06/03 00:02:38;;;;;;;2.57;2.07;;;18.30;99.90;;;;;;4955062;28;20234;-72
2021/06/03 00:05:07;;;;;;;2.77;2.10;;;18.30;99.90;;;;;;4955152;28;20262;-72
2021/06/03 00:07:34;;;;;;;2.70;2.20;;;18.30;99.90;;;;;;4955032;28;20212;-72
2021/06/03 00:10:00;;;;;;;2.87;2.10;;;18.40;99.90;;;;;;4954653;28;20214;-72
2021/06/03 00:12:28;;;;;;;2.43;1.93;;;18.40;99.90;;;;;;4954608;28;20223;-73
2021/06/03 00:14:54;;;;;;;3.27;2.17;;;18.40;99.90;;;;;;4954536;28;20215;-73
2021/06/03 00:17:20;;;;;;;2.73;1.93;;;18.40;99.90;;;;;;4954505;28;20722;-73
2021/06/03 00:19:47;;;;;;;3.03;2.20;;;18.40;99.90;;;;;;4954848;28;20204;-72
2021/06/03 00:22:13;;;;;;;3.90;2.20;;;18.40;99.90;;;;;;4954645;29;20710;-72
2021/06/03 00:24:39;;;;;;;3.03;2.40;;;18.40;99.90;;;;;;4954605;28;20212;-73
2021/06/03 00:27:06;;;;;;;4.00;2.17;;;18.40;99.90;;;;;;4954400;28;20682;-73
2021/06/03 00:29:33;;;;;;;2.47;2.10;;;18.40;99.90;;;;;;4954680;28;20214;-72
2021/06/03 00:32:00;;;;;;;3.70;2.30;;;18.40;99.90;;;;;;4954378;28;20224;-73
2021/06/03 00:34:26;;;;;;;2.83;2.17;;;18.40;99.90;;;;;;4954835;28;20219;-73
2021/06/03 00:36:53;;;;;;;2.63;2.10;;;18.40;99.90;;;;;;4954418;28;20733;-73
2021/06/03 00:39:20;;;;;;;3.20;2.07;;;18.20;99.90;;;;;;4954401;28;20220;-73
2021/06/03 00:41:46;;;;;;;4.57;2.47;;;18.20;99.90;;;;;;4954925;28;20785;-72
2021/06/03 00:44:12;;;;;;;3.43;2.20;;;18.20;99.90;;;;;;4958645;29;20222;-73
2021/06/03 00:46:40;;;;;;;4.27;2.20;;;18.10;99.90;;;;;;4958357;29;20204;-73
2021/06/03 00:49:06;;;;;;;2.93;2.30;;;18.10;99.90;;;;;;4958154;28;20222;-72
2021/06/03 00:51:33;;;;;;;2.90;2.10;;;18.00;99.90;;;;;;4958043;28;20239;-73
2021/06/03 00:54:00;;;;;;;3.00;2.37;;;18.00;99.90;;;;;;4958052;28;20208;-73
2021/06/03 00:56:26;;;;;;;3.13;2.47;;;17.90;99.90;;;;;;4958141;28;20239;-73
2021/06/03 00:58:52;;;;;;;4.97;2.10;;;17.90;99.90;;;;;;4958377;28;20208;-73
2021/06/03 01:01:19;;;;;;;6.97;2.20;;;17.90;99.90;;;;;;4958063;28;20294;-73
2021/06/03 01:03:47;;;;;;;3.37;2.40;;;18.00;99.90;;;;;;4957956;28;20230;-73
2021/06/03 01:06:13;;;;;;;4.13;2.40;;;18.00;99.90;;;;;;4957798;28;20271;-72
2021/06/03 01:08:42;;;;;;;5.30;1.93;;;18.00;99.90;;;;;;4957854;28;20218;-73
2021/06/03 01:11:16;;;;;;;8.50;2.33;;;17.90;99.90;;;;;;4957830;28;20239;-73
2021/06/03 01:13:48;;;;;;;2.60;2.20;;;17.90;99.90;;;;;;4957898;28;20244;-73
2021/06/03 01:16:16;;;;;;;3.13;2.30;;;17.90;99.90;;;;;;4957410;28;20235;-73
2021/06/03 01:18:43;;;;;;;3.10;2.40;;;18.00;99.90;;;;;;4957672;28;20208;-73
2021/06/03 01:21:13;;;;;;;3.63;2.60;;;17.90;99.90;;;;;;4957558;28;20748;-73
2021/06/03 01:23:46;;;;;;;4.87;2.10;;;18.00;99.90;;;;;;4957633;29;20208;-73
2021/06/03 01:26:15;;;;;;;5.90;2.30;;;18.00;99.90;;;;;;4957685;28;20212;-73
2021/06/03 01:28:42;;;;;;;5.00;2.30;;;17.90;99.90;;;;;;4958021;28;20211;-73
2021/06/03 01:31:08;;;;;;;3.70;2.53;;;18.00;99.90;;;;;;4957132;29;20711;-73
2021/06/03 01:33:41;;;;;;;3.00;2.13;;;18.00;99.90;;;;;;4957384;28;20208;-73
2021/06/03 01:36:11;;;;;;;2.80;1.97;;;18.00;99.90;;;;;;4957468;28;20287;-73
2021/06/03 01:38:40;;;;;;;7.70;2.70;;;18.00;99.90;;;;;;4957462;28;20219;-73
2021/06/03 01:41:09;;;;;;;4.03;2.57;;;17.90;99.90;;;;;;4957355;28;20232;-73
2021/06/03 01:43:38;;;;;;;6.57;2.37;;;17.90;99.90;;;;;;4957439;28;20208;-72
2021/06/03 01:46:06;;;;;;;3.40;2.37;;;17.80;99.90;;;;;;4957116;28;20689;-72
2021/06/03 01:48:32;;;;;;;3.60;2.30;;;17.80;99.90;;;;;;4957337;28;20208;-73
2021/06/03 01:51:03;;;;;;;4.20;2.60;;;17.80;99.90;;;;;;4956946;29;20540;-73
2021/06/03 01:53:30;;;;;;;3.83;2.47;;;17.90;99.90;;;;;;4956257;28;20208;-73
2021/06/03 01:56:02;;;;;;;4.80;2.17;;;17.90;99.90;;;;;;4956938;29;20227;-73
2021/06/03 01:58:29;;;;;;;5.43;2.33;;;17.80;99.90;;;;;;4956987;28;20452;-74
2021/06/03 02:00:58;;;;;;;5.70;2.20;;;17.80;99.90;;;;;;4957233;28;20212;-73
2021/06/03 02:03:25;;;;;;;2.93;2.10;;;17.80;99.90;;;;;;4957007;29;20204;-73
2021/06/03 02:05:51;;;;;;;5.07;2.67;;;17.80;99.90;;;;;;4957233;28;20212;-73
2021/06/03 02:08:18;;;;;;;4.17;2.27;;;17.80;99.90;;;;;;4956916;29;20212;-73
2021/06/03 02:10:45;;;;;;;4.30;2.63;;;17.80;99.90;;;;;;4957128;28;20212;-73
2021/06/03 02:13:15;;;;;;;3.30;2.20;;;17.70;99.90;;;;;;4957825;28;20216;-73
2021/06/03 02:15:49;;;;;;;3.70;2.40;;;17.70;99.90;;;;;;4957658;28;20204;-73
2021/06/03 02:18:18;;;;;;;5.13;2.40;;;17.80;99.90;;;;;;4957022;28;20208;-73
2021/06/03 02:20:47;;;;;;;3.20;2.10;;;17.80;99.90;;;;;;4956812;29;20207;-73
2021/06/03 02:23:15;;;;;;;3.33;2.43;;;17.80;99.90;;;;;;4956672;28;20208;-73
2021/06/03 02:25:41;;;;;;;3.83;2.23;;;17.80;99.90;;;;;;4956400;28;20758;-73
2021/06/03 02:28:08;;;;;;;5.27;2.53;;;17.80;99.90;;;;;;4956669;28;20683;-73
2021/06/03 02:30:34;;;;;;;7.03;2.20;;;17.80;99.90;;;;;;4956441;28;20216;-73
2021/06/03 02:33:02;;;;;;;3.17;2.00;;;17.80;99.90;;;;;;4956439;28;20228;-73
2021/06/03 02:35:29;;;;;;;4.37;2.30;;;17.90;99.90;;;;;;4956417;28;20212;-73
2021/06/03 02:37:56;;;;;;;2.77;2.23;;;17.90;99.90;;;;;;4956476;28;20231;-73
2021/06/03 02:40:26;;;;;;;3.47;2.20;;;17.90;99.90;;;;;;4956333;28;20208;-73
2021/06/03 02:42:54;;;;;;;4.13;2.47;;;17.90;99.90;;;;;;4956365;28;20228;-73
2021/06/03 02:45:23;;;;;;;5.03;2.70;;;17.90;99.90;;;;;;4956577;28;20244;-73
2021/06/03 02:47:50;;;;;;;4.17;2.10;;;17.90;99.90;;;;;;4956377;28;20607;-73
2021/06/03 02:50:18;;;;;;;2.80;2.17;;;18.00;99.90;;;;;;4955992;28;20212;-73
2021/06/03 02:52:46;;;;;;;3.63;2.43;;;18.10;99.90;;;;;;4955911;28;20224;-73
2021/06/03 02:55:16;;;;;;;4.27;2.37;;;18.10;99.90;;;;;;4956146;29;20574;-73
2021/06/03 02:57:42;;;;;;;3.43;2.17;;;18.10;99.90;;;;;;4955925;28;20727;-72
2021/06/03 03:00:12;;;;;;;4.03;2.43;;;18.10;99.90;;;;;;4955777;28;20208;-73
2021/06/03 03:02:39;;;;;;;4.03;2.23;;;18.10;99.90;;;;;;4955631;29;20711;-73
2021/06/03 03:05:07;;;;;;;5.43;2.33;;;18.20;99.90;;;;;;4955751;28;20204;-73
2021/06/03 03:07:35;;;;;;;2.73;2.10;;;18.20;99.90;;;;;;4956085;29;20212;-73
2021/06/03 03:10:07;;;;;;;4.47;2.00;;;18.10;99.90;;;;;;4955768;28;20212;-73
2021/06/03 03:12:34;;;;;;;7.17;2.40;;;18.20;99.90;;;;;;4955682;28;20232;-72
2021/06/03 03:15:00;;;;;;;4.53;2.33;;;18.30;99.90;;;;;;4955422;28;20764;-73
2021/06/03 03:17:26;;;;;;;4.93;2.20;;;18.30;99.90;;;;;;4955491;28;20232;-73
2021/06/03 03:19:53;;;;;;;4.93;2.03;;;18.30;99.90;;;;;;4955315;28;20211;-73
2021/06/03 03:22:19;;;;;;;5.57;2.40;;;18.40;99.90;;;;;;4955230;28;20266;-73
2021/06/03 03:24:45;;;;;;;3.23;2.40;;;18.40;99.90;;;;;;4955415;28;20223;-73
2021/06/03 03:27:13;;;;;;;2.90;2.00;;;18.50;99.90;;;;;;4955159;28;20239;-73
2021/06/03 03:29:39;;;;;;;4.03;2.20;;;18.50;99.90;;;;;;4955309;28;20215;-73
2021/06/03 03:32:07;;;;;;;3.33;2.20;;;18.50;99.90;;;;;;4954952;28;20231;-73
2021/06/03 03:34:33;;;;;;;3.47;2.40;;;18.50;99.90;;;;;;4955339;28;20548;-73
2021/06/03 03:36:59;;;;;;;2.90;2.17;;;18.50;99.90;;;;;;4954981;28;20235;-73
2021/06/03 03:39:26;;;;;;;3.13;2.40;;;18.50;99.90;;;;;;4955072;28;20208;-73
2021/06/03 03:41:53;;;;;;;6.37;2.40;;;18.60;99.90;;;;;;4954865;28;20223;-73
2021/06/03 03:44:20;;;;;;;4.60;2.53;;;18.60;99.90;;;;;;4955127;29;20211;-73
2021/06/03 03:46:47;;;;;;;3.57;2.60;;;18.70;99.90;;;;;;4955122;29;20214;-73
2021/06/03 03:49:13;;;;;;;3.00;2.37;;;18.80;99.90;;;;;;4955381;29;20263;-73
2021/06/03 03:51:39;;;;;;;2.70;2.20;;;18.80;99.90;;;;;;4955177;28;20232;-73
2021/06/03 03:54:06;;;;;;;6.03;2.17;;;18.90;99.90;;;;;;4955116;28;20212;-73
2021/06/03 03:56:32;;;;;;;4.90;2.50;;;19.00;99.90;;;;;;4954782;28;20243;-73
2021/06/03 03:58:58;;;;;;;4.27;2.47;;;19.10;99.90;;;;;;4954831;28;20260;-73
2021/06/03 04:01:28;;;;;;;5.27;2.53;;;19.10;99.90;;;;;;4954643;28;20224;-73
2021/06/03 04:03:55;;;;;;;5.13;2.80;;;19.10;99.90;;;;;;4954922;29;20734;-73
2021/06/03 04:06:21;;;;;;;4.93;2.10;;;19.20;99.90;;;;;;4955062;28;20705;-73
2021/06/03 04:08:48;;;;;;;2.90;2.40;;;19.30;99.90;;;;;;4955159;28;20207;-73
2021/06/03 04:11:14;;;;;;;4.00;2.50;;;19.30;99.90;;;;;;4954613;28;20236;-73
2021/06/03 04:13:41;;;;;;;4.27;2.83;;;19.30;99.90;;;;;;4954827;29;20662;-73
2021/06/03 04:16:07;;;;;;;3.90;2.50;;;19.30;99.90;;;;;;4954944;28;20232;-73
2021/06/03 04:18:35;;;;;;;5.80;2.47;;;19.30;99.90;;;;;;4958993;28;20214;-73
2021/06/03 04:21:01;;;;;;;5.60;2.37;;;19.20;99.90;;;;;;4958675;28;20699;-73
2021/06/03 04:23:27;;;;;;;5.23;2.90;;;19.10;99.90;;;;;;4958624;28;20694;-73
2021/06/03 04:25:54;;;;;;;3.13;2.27;;;19.20;99.90;;;;;;4958719;28;20216;-73
2021/06/03 04:28:20;;;;;;;3.37;2.70;;;19.30;99.90;;;;;;4958665;28;20214;-73
2021/06/03 04:30:46;;;;;;;4.73;2.60;;;19.30;99.90;;;;;;4958614;28;20212;-73
2021/06/03 04:33:15;;;;;;;6.23;2.83;;;19.30;99.90;;;;;;4958722;28;20204;-73
2021/06/03 04:35:43;;;;;;;4.00;2.57;;;19.40;99.90;;;;;;4958677;28;20208;-72
2021/06/03 04:38:09;;;;;;;3.40;2.63;;;19.40;99.90;;;;;;4958821;28;20254;-73
2021/06/03 04:40:36;;;;;;;2.80;2.40;;;19.50;99.90;;;;;;4958152;28;20204;-73
2021/06/03 04:43:02;;;;;;;4.23;3.10;;;19.50;99.90;;;;;;4958173;28;20228;-73
2021/06/03 04:45:34;;;;;;;3.30;2.50;;;19.60;99.90;;;;;;4960222;29;20208;-73
2021/06/03 04:48:00;;;;;;;6.97;2.83;;;19.70;99.90;;;;;;4968614;28;20243;-73
2021/06/03 04:50:27;;;;;;;4.97;3.03;;;19.80;99.90;;;;;;4958120;28;20671;-73
2021/06/03 04:52:54;;;;;;;3.23;2.50;;;19.80;99.90;;;;;;4957985;28;20219;-73
2021/06/03 04:55:22;;;;;;;3.60;2.80;;;19.70;99.90;;;;;;4958078;28;20208;-73
2021/06/03 04:57:50;;;;;;;5.50;2.63;;;19.70;99.90;;;;;;4957686;28;20240;-73
2021/06/03 05:00:18;;;;;;;5.00;2.60;;;19.80;99.90;;;;;;4958026;28;20204;-73
2021/06/03 05:02:45;;;;;;;4.18;2.60;;;19.90;99.90;;;;;;4958110;28;20324;-73
2021/06/03 05:05:13;;;;;;;5.10;3.10;;;20.00;99.90;;;;;;4958154;28;20212;-73
2021/06/03 05:07:39;;;;;;;4.50;2.70;;;20.10;99.90;;;;;;4958187;28;20208;-73
2021/06/03 05:10:09;;;;;;;5.80;2.67;;;20.30;99.90;;;;;;4957696;29;20573;-73
2021/06/03 05:12:35;;;;;;;6.72;2.88;;;20.30;99.90;;;;;;4957970;28;20232;-73
2021/06/03 05:15:02;;;;;;;4.00;3.00;;;20.50;99.90;;;;;;4957617;28;20211;-73
2021/06/03 05:17:29;;;;;;;4.65;2.78;;;20.60;99.90;;;;;;4957844;28;20231;-73
2021/06/03 05:19:55;;;;;;;4.43;2.70;;;20.70;99.90;;;;;;4957711;28;20218;-73
2021/06/03 05:22:21;;;;;;;4.88;2.90;;;20.80;99.90;;;;;;4957287;28;20254;-73
2021/06/03 05:24:48;;;;;;;5.10;3.00;;;20.80;99.90;;;;;;4957394;28;20710;-73
2021/06/03 05:27:15;;;;;;;5.55;3.00;;;20.80;99.90;;;;;;4957825;28;20208;-73
2021/06/03 05:29:42;;;;;;;4.97;3.40;;;20.80;99.90;;;;;;4956301;28;20204;-73
2021/06/03 05:32:08;;;;;;;5.82;3.22;;;20.90;99.90;;;;;;4957403;28;20232;-73
2021/06/03 05:34:34;;;;;;;4.15;3.13;;;21.00;99.90;;;;;;4957323;28;20208;-73
2021/06/03 05:37:01;;;;;;;4.13;2.85;;;21.00;99.90;;;;;;4957361;28;20239;-73
2021/06/03 05:39:27;;;;;;;3.45;2.63;;;21.10;99.90;;;;;;4957556;28;20216;-73
2021/06/03 05:41:53;;;;;;;4.72;3.17;;;21.10;99.90;;;;;;4957289;29;20718;-74
2021/06/03 05:44:21;;;;;;;7.63;3.53;;;21.10;99.90;;;;;;4957329;28;20211;-73
2021/06/03 05:46:49;;;;;;;4.30;2.97;;;21.10;99.90;;;;;;4957598;28;20376;-73
2021/06/03 05:49:15;;;;;;;5.63;3.40;;;21.20;99.90;;;;;;4957599;28;20208;-73
2021/06/03 05:51:43;;;;;;;6.65;3.55;;;21.10;99.90;;;;;;4957049;28;20582;-73
2021/06/03 05:54:10;;;;;;;6.47;3.47;;;21.10;99.90;;;;;;4957064;28;20208;-73
2021/06/03 05:56:37;;;;;;;6.38;3.75;;;21.30;99.90;;;;;;4957000;28;20240;-73
2021/06/03 05:59:04;;;;;;;4.05;3.17;;;21.50;99.90;;;;;;4957093;28;20208;-73
2021/06/03 06:01:32;;;;;;;7.00;3.65;;;21.70;99.90;;;;;;4956672;28;20255;-73
2021/06/03 06:04:12;;;;;;;4.78;3.30;;;21.70;99.90;;;;;;4956896;28;20208;-73
2021/06/03 06:06:38;;;;;;;7.72;3.72;;;21.80;99.90;;;;;;4957297;28;20208;-73
2021/06/03 06:09:07;;;;;;;4.63;3.75;;;22.00;99.90;;;;;;4957134;28;20666;-73
2021/06/03 06:11:36;;;;;;;6.00;3.70;;;21.90;99.90;;;;;;4956425;28;20231;-73
2021/06/03 06:14:03;;;;;;;5.68;3.50;;;22.00;99.90;;;;;;4956898;28;20204;-73
2021/06/03 06:16:31;;;;;;;7.03;3.65;;;22.10;99.90;;;;;;4956539;28;20326;-73
2021/06/03 06:18:58;;;;;;;5.65;3.92;;;22.20;99.90;;;;;;4956410;29;20262;-74
2021/06/03 06:21:25;;;;;;;9.05;5.32;;;22.50;99.90;;;;;;4956659;28;20224;-73
2021/06/03 06:23:52;;;;;;;6.60;3.60;;;22.70;99.90;;;;;;4956476;28;20212;-73
2021/06/03 06:26:19;;;;;;;6.00;3.78;;;22.80;99.90;;;;;;4956395;28;20208;-74
2021/06/03 06:28:46;;;;;;;6.45;3.67;;;22.80;99.90;;;;;;4956418;28;20263;-74
2021/06/03 06:31:13;;;;;;;6.65;4.50;;;22.80;99.90;;;;;;4956138;28;20232;-73
2021/06/03 06:33:41;;;;;;;6.68;4.05;;;22.90;99.90;;;;;;4956690;28;20204;-73
2021/06/03 06:36:09;;;;;;;6.20;3.80;;;23.00;99.90;;;;;;4956538;29;20207;-73
2021/06/03 06:38:37;;;;;;;6.10;3.67;;;23.00;99.90;;;;;;4956290;28;20208;-73
2021/06/03 06:41:04;;;;;;;4.97;3.33;;;23.20;99.90;;;;;;4955909;28;20263;-73
2021/06/03 06:43:30;;;;;;;11.35;4.28;;;23.50;99.90;;;;;;4956358;28;20367;-72
2021/06/03 06:45:57;;;;;;;8.65;3.92;;;23.60;99.90;;;;;;4959175;28;20230;-73
2021/06/03 06:48:23;;;;;;;6.93;4.05;;;23.60;99.90;;;;;;4975331;28;20215;-73
2021/06/03 06:50:51;;;;;;;4.93;4.00;;;23.70;99.90;;;;;;4983294;28;20260;-73
2021/06/03 06:53:18;;;;;;;7.28;3.90;;;23.90;99.90;;;;;;4994377;28;20613;-73
2021/06/03 06:55:44;;;;;;;5.57;3.83;;;23.70;99.90;;;;;;4958680;28;20639;-73
2021/06/03 06:58:11;;;;;;;7.03;4.07;;;23.60;99.90;;;;;;4955715;28;20234;-73
2021/06/03 07:00:39;;;;;;;7.25;4.05;;;23.40;99.90;;;;;;4955766;28;20212;-73
2021/06/03 07:03:08;;;;;;;6.97;3.80;;;23.70;99.90;;;;;;4974105;28;20225;-73
2021/06/03 07:05:36;;;;;;;5.40;3.92;;;24.20;99.90;;;;;;4961608;28;20216;-73
2021/06/03 07:08:05;;;;;;;7.53;3.55;;;25.00;99.90;;;;;;4956033;28;20207;-73
2021/06/03 07:10:31;;;;;;;8.68;4.05;;;25.60;99.90;;;;;;4955922;28;20212;-73
2021/06/03 07:12:58;;;;;;;7.03;3.42;;;26.40;99.90;;;;;;4956643;28;20239;-73
2021/06/03 07:15:24;;;;;;;5.55;3.75;;;26.50;99.90;;;;;;4956454;28;20218;-72
2021/06/03 07:17:53;;;;;;;8.60;3.35;;;26.10;99.90;;;;;;4955662;28;20569;-73
2021/06/03 07:20:19;;;;;;;4.65;3.20;;;25.90;99.90;;;;;;4955007;28;20766;-73
2021/06/03 07:22:48;;;;;;;5.13;3.80;;;25.80;99.90;;;;;;4961720;28;20289;-75
2021/06/03 07:25:19;;;;;;;5.25;3.15;;;26.10;99.90;;;;;;4964707;28;20219;-75
2021/06/03 07:27:45;;;;;;;5.13;2.92;;;26.60;99.90;;;;;;4954125;28;20303;-76
2021/06/03 07:30:14;;;;;;;6.43;2.92;;;27.80;99.90;;;;;;4985466;28;20533;-78
2021/06/03 07:32:41;;;;;;;4.55;2.83;;;28.60;99.90;;;;;;4979517;28;20228;-87
2021/06/03 07:35:10;;;;;;;4.22;3.10;;;29.20;99.90;;;;;;4953844;28;20334;-76
2021/06/03 07:37:36;;;;;;;4.68;2.72;;;28.90;99.90;;;;;;4953442;28;20572;-76
2021/06/03 07:40:04;;;;;;;4.18;3.03;;;28.10;99.90;;;;;;4978634;28;20561;-76
2021/06/03 07:42:31;;;;;;;3.88;3.10;;;27.20;99.90;;;;;;4959434;28;20357;-76
2021/06/03 07:44:58;;;;;;;11.02;3.40;;;26.70;99.90;;;;;;4960990;28;20233;-75
2021/06/03 07:47:24;;;;;;;6.70;3.10;;;26.40;99.90;;;;;;4954231;28;20219;-73
2021/06/03 07:49:50;;;;;;;5.18;3.28;;;26.30;99.90;;;;;;4953399;28;20204;-76
2021/06/03 07:52:17;;;;;;;6.70;3.38;;;26.30;99.90;;;;;;4955351;28;20313;-76
2021/06/03 07:54:43;;;;;;;6.32;3.67;;;26.10;99.90;;;;;;4963108;28;20208;-75
2021/06/03 07:57:10;;;;;;;8.55;3.60;;;25.90;99.90;;;;;;4953307;28;20282;-78
2021/06/03 07:59:38;;;;;;;5.93;3.47;;;25.70;99.90;;;;;;4952845;28;20540;-73
2021/06/03 08:02:04;;;;;;;5.63;3.10;;;25.50;99.90;;;;;;4954797;28;20243;-74
2021/06/03 08:04:31;;;;;;;5.53;3.47;;;25.30;99.90;;;;;;4964401;28;20204;-73
2021/06/03 08:06:57;;;;;;;8.18;4.07;;;25.20;99.90;;;;;;4953069;28;20211;-75
2021/06/03 08:09:23;;;;;;;8.93;3.85;;;25.10;99.90;;;;;;4952621;28;20208;-81
2021/06/03 08:11:50;;;;;;;6.70;3.88;;;25.20;99.90;;;;;;4952952;28;20818;-80
2021/06/03 08:14:16;;;;;;;5.93;3.90;;;25.60;99.90;;;;;;4965643;28;20204;-76
2021/06/03 08:16:44;;;;;;;5.80;3.78;;;25.70;99.90;;;;;;4953433;28;20231;-83
2021/06/03 08:19:10;;;;;;;6.68;3.85;;;25.70;99.90;;;;;;4953263;28;20270;-75
2021/06/03 08:21:37;;;;;;;7.93;3.78;;;26.10;99.90;;;;;;4969276;28;20238;-77
2021/06/03 08:24:04;;;;;;;7.10;4.13;;;26.00;99.90;;;;;;4968124;28;20222;-82
2021/06/03 08:26:31;;;;;;;4.53;3.58;;;26.10;99.90;;;;;;4953421;28;20295;-80
2021/06/03 08:28:57;;;;;;;6.05;3.90;;;26.00;99.90;;;;;;4953106;28;20216;-76
2021/06/03 08:31:23;;;;;;;5.70;4.15;;;25.90;99.90;;;;;;4952792;28;20703;-76
2021/06/03 08:33:51;;;;;;;5.15;3.42;;;26.20;99.90;;;;;;4965778;28;20207;-85
2021/06/03 08:36:18;;;;;;;6.00;4.00;;;26.30;99.90;;;;;;4952056;28;20235;-88
2021/06/03 08:38:44;;;;;;;6.40;4.38;;;26.60;99.90;;;;;;4957402;28;20294;-78
2021/06/03 08:41:11;;;;;;;5.70;4.20;;;26.40;99.90;;;;;;4991814;28;20223;-79
2021/06/03 08:43:37;;;;;;;6.28;3.67;;;26.60;99.90;;;;;;4963655;28;20300;-78
2021/06/03 08:46:04;;;;;;;9.43;4.80;;;26.40;99.90;;;;;;4952770;28;20259;-76
2021/06/03 08:48:31;;;;;;;4.80;3.42;;;26.60;99.90;;;;;;4960313;28;20309;-78
2021/06/03 08:51:03;;;;;;;6.35;3.78;;;26.90;99.90;;;;;;4971339;28;20214;-76
2021/06/03 08:53:30;;;;;;;11.48;4.25;;;27.00;99.90;;;;;;4972233;28;20207;-76
2021/06/03 08:56:17;;;;;;;9.07;4.30;;;27.10;99.90;;;;;;4954182;28;20215;-76
2021/06/03 08:58:44;;;;;;;8.00;5.05;;;27.30;99.90;;;;;;4953316;28;20738;-76
2021/06/03 09:01:12;;;;;;;6.15;4.30;;;27.30;99.90;;;;;;4955194;29;20224;-77
2021/06/03 09:03:39;;;;;;;6.13;4.47;;;27.30;99.90;;;;;;4956070;28;20212;-80
2021/06/03 09:06:08;;;;;;;8.40;4.88;;;27.40;99.90;;;;;;4958497;28;20235;-77
2021/06/03 09:08:35;;;;;;;8.63;4.28;;;27.50;99.90;;;;;;4958414;29;20682;-75
2021/06/03 09:11:05;;;;;;;6.78;4.28;;;27.30;99.90;;;;;;4958207;28;20228;-74
2021/06/03 09:13:34;;;;;;;7.32;4.30;;;27.50;99.90;;;;;;4958081;29;20308;-76
2021/06/03 09:16:11;;;;;;;6.75;3.85;;;27.60;99.90;;;;;;4957811;28;20208;-77
2021/06/03 09:18:41;;;;;;;7.30;4.47;;;27.70;99.90;;;;;;4957958;28;20314;-75
2021/06/03 09:21:11;;;;;;;7.82;4.60;;;27.80;99.90;;;;;;4957614;28;20267;-73
2021/06/03 09:23:39;;;;;;;8.85;4.07;;;27.80;99.90;;;;;;4957031;28;20238;-73
2021/06/03 09:26:07;;;;;;;6.40;3.78;;;27.90;99.90;;;;;;4957789;28;20210;-73
2021/06/03 09:28:35;;;;;;;6.40;3.92;;;28.20;99.90;;;;;;4957558;29;20247;-73
2021/06/03 09:31:11;;;;;;;6.68;4.15;;;28.10;99.90;;;;;;4956806;28;20244;-73
2021/06/03 09:33:57;;;;;;;6.10;4.07;;;28.40;99.90;;;;;;4956974;28;20204;-72
2021/06/03 09:36:34;;;;;;;7.55;4.32;;;27.90;99.90;;;;;;4957000;28;20685;-73
2021/06/03 09:39:05;;;;;;;6.65;4.00;;;28.10;99.90;;;;;;4965228;28;20224;-73
2021/06/03 09:41:32;;;;;;;6.43;3.83;;;28.00;99.90;;;;;;4995939;28;20230;-74
2021/06/03 09:44:12;;;;;;;5.22;3.80;;;28.30;99.90;;;;;;4989009;28;20336;-73
2021/06/03 09:46:41;;;;;;;5.65;3.90;;;28.70;99.90;;;;;;4957202;28;20277;-73
2021/06/03 09:49:15;;;;;;;6.88;3.88;;;28.70;99.90;;;;;;4956896;29;20204;-74
2021/06/03 09:51:46;;;;;;;7.10;3.83;;;28.90;99.90;;;;;;4956804;29;20318;-73
2021/06/03 09:54:14;;;;;;;7.75;3.67;;;28.90;99.90;;;;;;4956937;28;20214;-73
2021/06/03 09:56:42;;;;;;;5.65;3.97;;;28.50;99.90;;;;;;4956778;28;20208;-74
2021/06/03 09:59:12;;;;;;;6.03;3.35;;;28.40;99.90;;;;;;4956317;28;20204;-74
2021/06/03 10:01:44;;;;;;;5.50;3.65;;;28.60;99.90;;;;;;4956736;28;20228;-73
2021/06/03 10:04:12;;;;;;;6.90;4.15;;;28.20;99.90;;;;;;4956884;28;20215;-73
2021/06/03 10:06:59;;;;;;;5.95;3.97;;;27.70;99.90;;;;;;4956779;28;20655;-74
2021/06/03 10:09:46;;;;;;;6.30;3.58;;;27.40;99.90;;;;;;4957185;28;20207;-74
2021/06/03 10:12:24;;;;;;;6.70;4.10;;;27.10;99.90;;;;;;4956231;29;20227;-74
2021/06/03 10:14:51;;;;;;;6.78;4.00;;;26.80;99.90;;;;;;4955877;28;20230;-73
2021/06/03 10:17:19;;;;;;;6.75;4.32;;;26.60;99.90;;;;;;4956213;28;20730;-73
2021/06/03 10:19:47;;;;;;;7.30;4.97;;;26.30;99.90;;;;;;4956461;29;20227;-74
2021/06/03 10:22:20;;;;;;;9.27;4.78;;;26.20;99.90;;;;;;4956521;28;20224;-73
2021/06/03 10:24:49;;;;;;;8.15;4.40;;;26.10;99.90;;;;;;4956256;28;20219;-74
2021/06/03 10:27:15;;;;;;;7.70;4.82;;;26.00;99.90;;;;;;4956145;28;20571;-74
2021/06/03 10:29:42;;;;;;;7.63;4.25;;;26.10;99.90;;;;;;4956150;28;20214;-74
2021/06/03 10:32:09;;;;;;;9.02;4.00;;;26.10;99.90;;;;;;4956431;28;20235;-73
2021/06/03 10:34:36;;;;;;;6.82;4.30;;;26.10;99.90;;;;;;4956169;28;20236;-73
2021/06/03 10:37:03;;;;;;;9.45;4.28;;;26.20;99.90;;;;;;4956630;28;20243;-74
2021/06/03 10:39:32;;;;;;;9.35;5.00;;;26.30;99.90;;;;;;4956382;28;20214;-74
2021/06/03 10:41:59;;;;;;;7.47;4.63;;;26.30;99.90;;;;;;4955905;28;20232;-74
2021/06/03 10:44:26;;;;;;;5.43;3.90;;;26.10;99.90;;;;;;4956117;28;20655;-74
2021/06/03 10:46:53;;;;;;;7.28;4.63;;;26.10;99.90;;;;;;4956880;28;20219;-74
2021/06/03 10:49:21;;;;;;;9.35;4.65;;;26.10;99.90;;;;;;4956249;28;20211;-74
2021/06/03 10:51:48;;;;;;;9.30;4.30;;;26.10;99.90;;;;;;4955797;28;20228;-74
2021/06/03 10:54:35;;;;;;;8.07;4.45;;;26.20;99.90;;;;;;4955950;28;20208;-74
2021/06/03 10:57:03;;;;;;;8.20;4.57;;;26.50;99.90;;;;;;4955220;28;20228;-74
2021/06/03 10:59:30;;;;;;;6.70;4.40;;;26.90;99.90;;;;;;4955523;28;20212;-74
2021/06/03 11:01:57;;;;;;;8.23;4.03;;;27.30;99.90;;;;;;4955833;28;20228;-75
2021/06/03 11:04:28;;;;;;;6.85;4.38;;;27.70;99.90;;;;;;4955391;28;20211;-74
2021/06/03 11:06:54;;;;;;;7.97;3.75;;;27.90;99.90;;;;;;4955935;28;20219;-74
2021/06/03 11:09:26;;;;;;;7.13;3.65;;;28.20;99.90;;;;;;4955610;28;20636;-74
2021/06/03 11:12:20;;;;;;;8.18;3.58;;;28.20;99.90;;;;;;4955435;28;20231;-74
2021/06/03 11:15:09;;;;;;;5.72;3.90;;;28.90;99.90;;;;;;4955350;28;20216;-75
2021/06/03 11:17:56;;;;;;;5.65;3.28;;;28.70;99.90;;;;;;4955129;29;20396;-74
2021/06/03 11:20:37;;;;;;;6.03;3.45;;;28.60;99.90;;;;;;4955505;28;20568;-75
2021/06/03 11:23:41;;;;;;;5.88;3.60;;;28.60;99.90;;;;;;4955313;28;20721;-74
2021/06/03 11:26:08;;;;;;;4.80;3.33;;;28.70;99.90;;;;;;4955135;28;20634;-74
2021/06/03 11:28:36;;;;;;;7.93;3.70;;;28.70;99.90;;;;;;4955268;28;20216;-75
2021/06/03 11:31:21;;;;;;;5.10;3.15;;;28.80;99.90;;;;;;4954873;28;20323;-74
2021/06/03 11:34:09;;;;;;;5.35;3.50;;;28.70;99.90;;;;;;4955108;28;20216;-74
2021/06/03 11:36:36;;;;;;;6.47;3.58;;;28.40;99.90;;;;;;4950932;28;20258;-74
2021/06/03 11:39:06;;;;;;;4.53;3.20;;;28.30;99.90;;;;;;4955111;29;20220;-74
2021/06/03 11:41:34;;;;;;;4.45;2.97;;;28.40;99.90;;;;;;4954696;28;20227;-74
2021/06/03 11:44:13;;;;;;;3.22;2.72;;;28.40;99.90;;;;;;4954430;28;20212;-74
2021/06/03 11:47:00;;;;;;;5.53;3.15;;;28.60;99.90;;;;;;4954809;28;20706;-74
2021/06/03 11:49:35;;;;;;;5.90;3.38;;;29.00;99.90;;;;;;4954948;28;20204;-74
2021/06/03 11:52:12;;;;;;;7.25;3.22;;;29.00;99.90;;;;;;4954812;28;20232;-74
2021/06/03 11:54:56;;;;;;;5.43;2.67;;;29.30;99.90;;;;;;4954782;28;20598;-74
2021/06/03 11:57:23;;;;;;;4.05;2.50;;;29.60;99.90;;;;;;4954862;28;20266;-74
2021/06/03 12:00:01;;;;;;;3.30;2.22;;;29.50;99.20;;;;;;4954980;28;20266;-74
2021/06/03 12:02:30;;;;;;;4.72;2.58;;;29.70;98.50;;;;;;4954398;28;20274;-76
2021/06/03 12:05:17;;;;;;;5.68;2.95;;;29.70;99.00;;;;;;4954281;28;20212;-79
2021/06/03 12:07:45;;;;;;;4.72;2.35;;;29.90;98.50;;;;;;4972970;28;20210;-80
2021/06/03 12:10:13;;;;;;;4.55;2.20;;;30.10;97.90;;;;;;4967222;28;20218;-78
2021/06/03 12:12:40;;;;;;;3.42;2.05;;;30.20;95.80;;;;;;4961452;28;20278;-79
2021/06/03 12:15:22;;;;;;;4.28;2.33;;;30.30;97.50;;;;;;4972288;28;20210;-81
2021/06/03 12:17:55;;;;;;;6.03;3.15;;;30.10;96.30;;;;;;4981495;28;20242;-75
2021/06/03 12:20:22;;;;;;;3.67;2.42;;;29.90;96.60;;;;;;4966141;28;20299;-78
2021/06/03 12:22:49;;;;;;;3.75;2.40;;;29.80;96.80;;;;;;4953698;28;20770;-75
2021/06/03 12:25:16;;;;;;;6.00;3.00;;;29.50;95.90;;;;;;4958930;28;20219;-77
2021/06/03 12:27:43;;;;;;;5.60;3.13;;;29.40;97.40;;;;;;4972232;28;20211;-77
2021/06/03 12:30:15;;;;;;;3.58;2.22;;;29.40;98.10;;;;;;4981096;28;20220;-74
2021/06/03 12:32:59;;;;;;;4.00;2.63;;;29.10;95.00;;;;;;4953464;28;20287;-76
2021/06/03 12:35:32;;;;;;;4.80;3.08;;;28.90;96.50;;;;;;4959554;28;20539;-77
2021/06/03 12:37:59;;;;;;;5.53;3.72;;;28.80;97.50;;;;;;4973529;28;20331;-76
2021/06/03 12:40:26;;;;;;;3.70;2.75;;;28.80;98.30;;;;;;4969341;28;20327;-79
2021/06/03 12:43:04;;;;;;;4.07;2.40;;;28.80;97.60;;;;;;4956584;28;20246;-78
2021/06/03 12:45:35;;;;;;;4.25;2.60;;;28.80;98.50;;;;;;4972791;28;20203;-74
2021/06/03 12:48:03;;;;;;;3.95;2.60;;;29.00;96.80;;;;;;4995720;28;20212;-76
2021/06/03 12:50:30;;;;;;;4.88;2.47;;;28.80;96.10;;;;;;4980188;28;20208;-80
2021/06/03 12:52:56;;;;;;;5.43;2.20;;;28.60;96.60;;;;;;4988496;28;20226;-80